sensor_id;sensor_type;location;lat;lon;timestamp;P1;durP1;ratioP1;P2;durP2;ratioP2
11396;SDS011;5754;43.726;7.416;2022-09-14T00:01:49;3.50;;;1.55;;
11396;SDS011;5754;43.726;7.416;2022-09-14T00:04:24;2.83;;;1.42;;
11396;SDS011;5754;43.726;7.416;2022-09-14T00:06:58;5.47;;;2.10;;
11396;SDS011;5754;43.726;7.416;2022-09-14T00:09:32;4.47;;;1.80;;
11396;SDS011;5754;43.726;7.416;2022-09-14T00:12:07;2.72;;;1.50;;
11396;SDS011;5754;43.726;7.416;2022-09-14T00:14:42;4.68;;;1.50;;
11396;SDS011;5754;43.726;7.416;2022-09-14T00:17:16;5.97;;;1.80;;
11396;SDS011;5754;43.726;7.416;2022-09-14T00:19:50;5.05;;;1.50;;
11396;SDS011;5754;43.726;7.416;2022-09-14T00:22:26;3.95;;;1.87;;
11396;SDS011;5754;43.726;7.416;2022-09-14T00:25:00;3.15;;;1.48;;
11396;SDS011;5754;43.726;7.416;2022-09-14T00:27:34;3.90;;;1.58;;
11396;SDS011;5754;43.726;7.416;2022-09-14T00:30:09;3.08;;;1.65;;
11396;SDS011;5754;43.726;7.416;2022-09-14T00:32:44;4.47;;;1.80;;
11396;SDS011;5754;43.726;7.416;2022-09-14T00:35:18;2.40;;;1.60;;
11396;SDS011;5754;43.726;7.416;2022-09-14T00:37:53;3.72;;;1.40;;
11396;SDS011;5754;43.726;7.416;2022-09-14T00:40:27;3.67;;;1.50;;
11396;SDS011;5754;43.726;7.416;2022-09-14T00:43:02;4.10;;;1.85;;
11396;SDS011;5754;43.726;7.416;2022-09-14T00:45:36;3.03;;;1.50;;
11396;SDS011;5754;43.726;7.416;2022-09-14T00:48:10;3.08;;;1.48;;
11396;SDS011;5754;43.726;7.416;2022-09-14T00:50:45;2.90;;;1.50;;
11396;SDS011;5754;43.726;7.416;2022-09-14T00:53:20;3.67;;;1.58;;
11396;SDS011;5754;43.726;7.416;2022-09-14T00:55:54;3.85;;;1.40;;
11396;SDS011;5754;43.726;7.416;2022-09-14T00:58:29;3.37;;;1.58;;
11396;SDS011;5754;43.726;7.416;2022-09-14T01:01:03;3.80;;;1.55;;
11396;SDS011;5754;43.726;7.416;2022-09-14T01:03:38;4.72;;;1.60;;
11396;SDS011;5754;43.726;7.416;2022-09-14T01:10:25;6.25;;;1.58;;
11396;SDS011;5754;43.726;7.416;2022-09-14T01:19:24;2.87;;;1.40;;
11396;SDS011;5754;43.726;7.416;2022-09-14T01:22:00;2.90;;;1.33;;
11396;SDS011;5754;43.726;7.416;2022-09-14T01:24:55;3.25;;;1.50;;
11396;SDS011;5754;43.726;7.416;2022-09-14T01:27:33;3.10;;;1.58;;
11396;SDS011;5754;43.726;7.416;2022-09-14T01:30:08;2.23;;;1.50;;
11396;SDS011;5754;43.726;7.416;2022-09-14T01:32:53;4.80;;;1.60;;
11396;SDS011;5754;43.726;7.416;2022-09-14T01:35:32;3.58;;;1.60;;
11396;SDS011;5754;43.726;7.416;2022-09-14T01:38:11;3.67;;;1.67;;
11396;SDS011;5754;43.726;7.416;2022-09-14T01:40:48;5.53;;;1.65;;
11396;SDS011;5754;43.726;7.416;2022-09-14T01:43:24;3.25;;;1.40;;
11396;SDS011;5754;43.726;7.416;2022-09-14T01:46:02;2.25;;;1.40;;
11396;SDS011;5754;43.726;7.416;2022-09-14T01:48:47;4.28;;;1.58;;
11396;SDS011;5754;43.726;7.416;2022-09-14T01:51:32;2.67;;;1.50;;
11396;SDS011;5754;43.726;7.416;2022-09-14T01:54:31;2.80;;;1.52;;
11396;SDS011;5754;43.726;7.416;2022-09-14T01:57:14;3.35;;;1.48;;
11396;SDS011;5754;43.726;7.416;2022-09-14T01:59:51;3.12;;;1.37;;
11396;SDS011;5754;43.726;7.416;2022-09-14T02:02:30;4.47;;;1.73;;
11396;SDS011;5754;43.726;7.416;2022-09-14T02:05:07;2.40;;;1.40;;
11396;SDS011;5754;43.726;7.416;2022-09-14T02:07:42;2.58;;;1.45;;
11396;SDS011;5754;43.726;7.416;2022-09-14T02:10:17;8.00;;;2.03;;
11396;SDS011;5754;43.726;7.416;2022-09-14T02:12:52;4.80;;;1.52;;
11396;SDS011;5754;43.726;7.416;2022-09-14T02:15:27;4.15;;;1.80;;
11396;SDS011;5754;43.726;7.416;2022-09-14T02:18:01;4.03;;;1.48;;
11396;SDS011;5754;43.726;7.416;2022-09-14T02:20:37;6.20;;;1.65;;
11396;SDS011;5754;43.726;7.416;2022-09-14T02:23:13;4.62;;;1.60;;
11396;SDS011;5754;43.726;7.416;2022-09-14T02:25:48;2.95;;;1.42;;
11396;SDS011;5754;43.726;7.416;2022-09-14T02:28:23;4.75;;;1.48;;
11396;SDS011;5754;43.726;7.416;2022-09-14T02:31:06;4.87;;;1.40;;
11396;SDS011;5754;43.726;7.416;2022-09-14T02:34:04;3.92;;;1.55;;
11396;SDS011;5754;43.726;7.416;2022-09-14T02:36:48;4.25;;;1.70;;
11396;SDS011;5754;43.726;7.416;2022-09-14T02:47:14;3.42;;;1.50;;
11396;SDS011;5754;43.726;7.416;2022-09-14T02:50:06;3.65;;;1.50;;
11396;SDS011;5754;43.726;7.416;2022-09-14T02:52:52;5.68;;;1.70;;
11396;SDS011;5754;43.726;7.416;2022-09-14T02:55:36;3.95;;;1.58;;
11396;SDS011;5754;43.726;7.416;2022-09-14T02:58:12;4.25;;;1.67;;
11396;SDS011;5754;43.726;7.416;2022-09-14T03:00:48;3.53;;;1.40;;
11396;SDS011;5754;43.726;7.416;2022-09-14T03:03:23;6.62;;;1.85;;
11396;SDS011;5754;43.726;7.416;2022-09-14T03:05:58;2.67;;;1.62;;
11396;SDS011;5754;43.726;7.416;2022-09-14T03:08:32;2.90;;;1.80;;
11396;SDS011;5754;43.726;7.416;2022-09-14T03:11:07;4.60;;;1.50;;
11396;SDS011;5754;43.726;7.416;2022-09-14T03:13:42;2.78;;;1.42;;
11396;SDS011;5754;43.726;7.416;2022-09-14T03:16:17;3.12;;;1.50;;
11396;SDS011;5754;43.726;7.416;2022-09-14T03:18:51;3.75;;;1.55;;
11396;SDS011;5754;43.726;7.416;2022-09-14T03:21:26;2.53;;;1.55;;
11396;SDS011;5754;43.726;7.416;2022-09-14T03:24:00;1.92;;;1.30;;
11396;SDS011;5754;43.726;7.416;2022-09-14T03:26:35;2.30;;;1.60;;
11396;SDS011;5754;43.726;7.416;2022-09-14T03:29:11;5.43;;;1.80;;
11396;SDS011;5754;43.726;7.416;2022-09-14T03:31:45;4.97;;;1.60;;
11396;SDS011;5754;43.726;7.416;2022-09-14T03:34:20;2.47;;;1.40;;
11396;SDS011;5754;43.726;7.416;2022-09-14T03:36:54;2.40;;;1.60;;
11396;SDS011;5754;43.726;7.416;2022-09-14T03:39:29;2.53;;;1.50;;
11396;SDS011;5754;43.726;7.416;2022-09-14T03:42:03;2.67;;;1.50;;
11396;SDS011;5754;43.726;7.416;2022-09-14T03:44:37;4.05;;;1.40;;
11396;SDS011;5754;43.726;7.416;2022-09-14T03:47:12;3.33;;;1.50;;
11396;SDS011;5754;43.726;7.416;2022-09-14T03:49:46;2.47;;;1.40;;
11396;SDS011;5754;43.726;7.416;2022-09-14T03:52:20;3.87;;;1.65;;
11396;SDS011;5754;43.726;7.416;2022-09-14T03:54:55;3.78;;;1.70;;
11396;SDS011;5754;43.726;7.416;2022-09-14T03:57:29;2.90;;;1.50;;
11396;SDS011;5754;43.726;7.416;2022-09-14T04:00:05;3.15;;;1.60;;
11396;SDS011;5754;43.726;7.416;2022-09-14T04:02:46;2.65;;;1.55;;
11396;SDS011;5754;43.726;7.416;2022-09-14T04:05:21;2.50;;;1.40;;
11396;SDS011;5754;43.726;7.416;2022-09-14T04:07:56;3.00;;;1.60;;
11396;SDS011;5754;43.726;7.416;2022-09-14T04:10:31;2.70;;;1.50;;
11396;SDS011;5754;43.726;7.416;2022-09-14T04:13:05;3.42;;;1.50;;
11396;SDS011;5754;43.726;7.416;2022-09-14T04:15:40;2.37;;;1.40;;
11396;SDS011;5754;43.726;7.416;2022-09-14T04:18:14;3.78;;;1.55;;
11396;SDS011;5754;43.726;7.416;2022-09-14T04:20:55;2.83;;;1.50;;
11396;SDS011;5754;43.726;7.416;2022-09-14T04:23:30;2.78;;;1.40;;
11396;SDS011;5754;43.726;7.416;2022-09-14T04:26:15;4.82;;;1.75;;
11396;SDS011;5754;43.726;7.416;2022-09-14T04:28:50;3.72;;;1.70;;
11396;SDS011;5754;43.726;7.416;2022-09-14T04:31:24;3.62;;;1.73;;
11396;SDS011;5754;43.726;7.416;2022-09-14T04:33:58;3.80;;;1.50;;
11396;SDS011;5754;43.726;7.416;2022-09-14T04:36:36;3.35;;;1.52;;
11396;SDS011;5754;43.726;7.416;2022-09-14T04:39:11;3.47;;;1.40;;
11396;SDS011;5754;43.726;7.416;2022-09-14T04:41:46;2.30;;;1.70;;
11396;SDS011;5754;43.726;7.416;2022-09-14T04:44:20;4.50;;;1.75;;
11396;SDS011;5754;43.726;7.416;2022-09-14T04:46:55;3.12;;;1.62;;
11396;SDS011;5754;43.726;7.416;2022-09-14T04:49:29;4.93;;;1.60;;
11396;SDS011;5754;43.726;7.416;2022-09-14T04:52:04;3.75;;;1.50;;
11396;SDS011;5754;43.726;7.416;2022-09-14T04:54:38;12.30;;;11.12;;
11396;SDS011;5754;43.726;7.416;2022-09-14T04:57:12;5.07;;;4.25;;
11396;SDS011;5754;43.726;7.416;2022-09-14T04:59:47;7.05;;;4.65;;
11396;SDS011;5754;43.726;7.416;2022-09-14T05:02:21;6.37;;;5.10;;
11396;SDS011;5754;43.726;7.416;2022-09-14T05:04:56;4.93;;;4.40;;
11396;SDS011;5754;43.726;7.416;2022-09-14T05:07:31;7.70;;;4.62;;
11396;SDS011;5754;43.726;7.416;2022-09-14T05:10:06;7.40;;;4.22;;
11396;SDS011;5754;43.726;7.416;2022-09-14T05:12:41;7.75;;;6.95;;
11396;SDS011;5754;43.726;7.416;2022-09-14T05:15:15;7.93;;;7.07;;
11396;SDS011;5754;43.726;7.416;2022-09-14T05:17:49;7.95;;;7.10;;
11396;SDS011;5754;43.726;7.416;2022-09-14T05:20:24;6.47;;;2.67;;
11396;SDS011;5754;43.726;7.416;2022-09-14T05:23:00;7.60;;;5.47;;
11396;SDS011;5754;43.726;7.416;2022-09-14T05:25:35;11.25;;;7.80;;
11396;SDS011;5754;43.726;7.416;2022-09-14T05:28:09;10.13;;;9.13;;
11396;SDS011;5754;43.726;7.416;2022-09-14T05:30:43;5.62;;;3.25;;
11396;SDS011;5754;43.726;7.416;2022-09-14T05:33:18;5.22;;;2.95;;
11396;SDS011;5754;43.726;7.416;2022-09-14T05:35:58;5.05;;;4.65;;
11396;SDS011;5754;43.726;7.416;2022-09-14T05:38:33;13.43;;;10.40;;
11396;SDS011;5754;43.726;7.416;2022-09-14T05:41:09;5.55;;;4.57;;
11396;SDS011;5754;43.726;7.416;2022-09-14T05:43:44;6.22;;;3.80;;
11396;SDS011;5754;43.726;7.416;2022-09-14T05:46:18;6.87;;;6.15;;
11396;SDS011;5754;43.726;7.416;2022-09-14T05:48:53;10.57;;;3.58;;
11396;SDS011;5754;43.726;7.416;2022-09-14T05:51:27;6.87;;;5.70;;
11396;SDS011;5754;43.726;7.416;2022-09-14T05:54:01;10.77;;;8.15;;
11396;SDS011;5754;43.726;7.416;2022-09-14T05:56:42;7.43;;;3.62;;
11396;SDS011;5754;43.726;7.416;2022-09-14T05:59:16;3.12;;;2.75;;
11396;SDS011;5754;43.726;7.416;2022-09-14T06:01:50;5.15;;;2.75;;
11396;SDS011;5754;43.726;7.416;2022-09-14T06:04:25;3.65;;;2.08;;
11396;SDS011;5754;43.726;7.416;2022-09-14T06:06:59;5.10;;;2.08;;
11396;SDS011;5754;43.726;7.416;2022-09-14T06:09:52;3.83;;;1.98;;
11396;SDS011;5754;43.726;7.416;2022-09-14T06:12:26;3.80;;;1.87;;
11396;SDS011;5754;43.726;7.416;2022-09-14T06:15:01;5.85;;;1.90;;
11396;SDS011;5754;43.726;7.416;2022-09-14T06:17:35;2.28;;;1.50;;
11396;SDS011;5754;43.726;7.416;2022-09-14T06:20:10;5.32;;;1.83;;
11396;SDS011;5754;43.726;7.416;2022-09-14T06:22:44;6.35;;;2.12;;
11396;SDS011;5754;43.726;7.416;2022-09-14T06:25:19;4.60;;;2.33;;
11396;SDS011;5754;43.726;7.416;2022-09-14T06:27:53;5.60;;;2.35;;
11396;SDS011;5754;43.726;7.416;2022-09-14T06:30:27;4.18;;;1.98;;
11396;SDS011;5754;43.726;7.416;2022-09-14T06:33:03;5.15;;;2.00;;
11396;SDS011;5754;43.726;7.416;2022-09-14T06:35:40;4.05;;;1.92;;
11396;SDS011;5754;43.726;7.416;2022-09-14T06:38:14;5.00;;;2.12;;
11396;SDS011;5754;43.726;7.416;2022-09-14T06:40:55;6.12;;;2.10;;
11396;SDS011;5754;43.726;7.416;2022-09-14T06:43:32;4.80;;;2.10;;
11396;SDS011;5754;43.726;7.416;2022-09-14T06:46:09;3.75;;;2.10;;
11396;SDS011;5754;43.726;7.416;2022-09-14T06:48:48;6.80;;;2.22;;
11396;SDS011;5754;43.726;7.416;2022-09-14T06:51:28;10.80;;;2.15;;
11396;SDS011;5754;43.726;7.416;2022-09-14T06:54:03;5.43;;;1.65;;
11396;SDS011;5754;43.726;7.416;2022-09-14T06:56:39;4.90;;;2.10;;
11396;SDS011;5754;43.726;7.416;2022-09-14T06:59:14;7.03;;;2.10;;
11396;SDS011;5754;43.726;7.416;2022-09-14T07:01:49;9.77;;;2.72;;
11396;SDS011;5754;43.726;7.416;2022-09-14T07:04:23;7.35;;;3.12;;
11396;SDS011;5754;43.726;7.416;2022-09-14T07:06:58;8.15;;;2.67;;
11396;SDS011;5754;43.726;7.416;2022-09-14T07:09:32;8.02;;;2.90;;
11396;SDS011;5754;43.726;7.416;2022-09-14T07:12:07;6.47;;;2.85;;
11396;SDS011;5754;43.726;7.416;2022-09-14T07:14:41;10.10;;;2.95;;
11396;SDS011;5754;43.726;7.416;2022-09-14T07:17:15;8.27;;;2.97;;
11396;SDS011;5754;43.726;7.416;2022-09-14T07:19:50;11.32;;;3.20;;
11396;SDS011;5754;43.726;7.416;2022-09-14T07:22:24;11.63;;;3.30;;
11396;SDS011;5754;43.726;7.416;2022-09-14T07:24:59;7.65;;;2.80;;
11396;SDS011;5754;43.726;7.416;2022-09-14T07:27:33;3.42;;;2.35;;
11396;SDS011;5754;43.726;7.416;2022-09-14T07:30:08;7.10;;;2.50;;
11396;SDS011;5754;43.726;7.416;2022-09-14T07:32:43;5.30;;;2.45;;
11396;SDS011;5754;43.726;7.416;2022-09-14T07:35:17;4.68;;;2.20;;
11396;SDS011;5754;43.726;7.416;2022-09-14T07:37:52;4.75;;;2.08;;
11396;SDS011;5754;43.726;7.416;2022-09-14T07:40:27;3.25;;;1.48;;
11396;SDS011;5754;43.726;7.416;2022-09-14T07:43:01;4.57;;;2.00;;
11396;SDS011;5754;43.726;7.416;2022-09-14T07:45:36;5.33;;;2.13;;
11396;SDS011;5754;43.726;7.416;2022-09-14T07:48:11;5.33;;;2.10;;
11396;SDS011;5754;43.726;7.416;2022-09-14T07:50:46;5.60;;;2.27;;
11396;SDS011;5754;43.726;7.416;2022-09-14T07:53:20;6.00;;;2.30;;
11396;SDS011;5754;43.726;7.416;2022-09-14T07:55:57;4.87;;;2.33;;
11396;SDS011;5754;43.726;7.416;2022-09-14T07:58:32;3.90;;;2.30;;
11396;SDS011;5754;43.726;7.416;2022-09-14T08:01:08;7.87;;;3.10;;
11396;SDS011;5754;43.726;7.416;2022-09-14T08:03:44;6.03;;;4.20;;
11396;SDS011;5754;43.726;7.416;2022-09-14T08:06:22;6.43;;;3.95;;
11396;SDS011;5754;43.726;7.416;2022-09-14T08:08:57;5.87;;;3.97;;
11396;SDS011;5754;43.726;7.416;2022-09-14T08:11:32;5.15;;;3.47;;
11396;SDS011;5754;43.726;7.416;2022-09-14T08:14:09;3.72;;;2.85;;
11396;SDS011;5754;43.726;7.416;2022-09-14T08:16:44;5.83;;;3.30;;
11396;SDS011;5754;43.726;7.416;2022-09-14T08:19:19;7.07;;;3.40;;
11396;SDS011;5754;43.726;7.416;2022-09-14T08:21:53;5.60;;;3.53;;
11396;SDS011;5754;43.726;7.416;2022-09-14T08:24:27;10.17;;;3.37;;
11396;SDS011;5754;43.726;7.416;2022-09-14T08:27:02;8.67;;;3.30;;
11396;SDS011;5754;43.726;7.416;2022-09-14T08:29:38;10.55;;;3.40;;
11396;SDS011;5754;43.726;7.416;2022-09-14T08:32:12;7.45;;;3.15;;
11396;SDS011;5754;43.726;7.416;2022-09-14T08:34:47;8.40;;;3.30;;
11396;SDS011;5754;43.726;7.416;2022-09-14T08:37:22;8.00;;;4.22;;
11396;SDS011;5754;43.726;7.416;2022-09-14T08:39:56;7.40;;;3.95;;
11396;SDS011;5754;43.726;7.416;2022-09-14T08:42:30;12.02;;;4.65;;
11396;SDS011;5754;43.726;7.416;2022-09-14T08:45:05;11.55;;;4.47;;
11396;SDS011;5754;43.726;7.416;2022-09-14T08:47:42;9.57;;;4.25;;
11396;SDS011;5754;43.726;7.416;2022-09-14T08:50:17;6.00;;;3.47;;
11396;SDS011;5754;43.726;7.416;2022-09-14T08:52:52;7.95;;;3.28;;
11396;SDS011;5754;43.726;7.416;2022-09-14T08:55:38;6.32;;;3.45;;
11396;SDS011;5754;43.726;7.416;2022-09-14T08:58:25;5.57;;;3.12;;
11396;SDS011;5754;43.726;7.416;2022-09-14T09:01:11;10.23;;;3.50;;
11396;SDS011;5754;43.726;7.416;2022-09-14T09:04:26;4.55;;;3.42;;
11396;SDS011;5754;43.726;7.416;2022-09-14T09:08:38;9.02;;;2.90;;
11396;SDS011;5754;43.726;7.416;2022-09-14T09:11:16;9.50;;;3.17;;
11396;SDS011;5754;43.726;7.416;2022-09-14T09:13:51;4.50;;;3.50;;
11396;SDS011;5754;43.726;7.416;2022-09-14T09:16:26;3.72;;;2.92;;
11396;SDS011;5754;43.726;7.416;2022-09-14T09:19:02;8.32;;;3.35;;
11396;SDS011;5754;43.726;7.416;2022-09-14T09:21:41;7.85;;;3.12;;
11396;SDS011;5754;43.726;7.416;2022-09-14T09:24:20;6.90;;;2.80;;
11396;SDS011;5754;43.726;7.416;2022-09-14T09:26:55;6.65;;;3.10;;
11396;SDS011;5754;43.726;7.416;2022-09-14T09:29:30;5.72;;;3.20;;
11396;SDS011;5754;43.726;7.416;2022-09-14T09:35:20;30.08;;;23.55;;
11396;SDS011;5754;43.726;7.416;2022-09-14T09:38:07;6.22;;;3.17;;
11396;SDS011;5754;43.726;7.416;2022-09-14T09:40:47;5.10;;;2.87;;
11396;SDS011;5754;43.726;7.416;2022-09-14T09:43:24;4.18;;;2.60;;
11396;SDS011;5754;43.726;7.416;2022-09-14T09:46:12;4.70;;;2.95;;
11396;SDS011;5754;43.726;7.416;2022-09-14T09:48:48;4.85;;;3.03;;
11396;SDS011;5754;43.726;7.416;2022-09-14T09:51:32;6.20;;;2.95;;
11396;SDS011;5754;43.726;7.416;2022-09-14T09:57:30;3.33;;;2.30;;
11396;SDS011;5754;43.726;7.416;2022-09-14T10:03:26;4.47;;;2.65;;
11396;SDS011;5754;43.726;7.416;2022-09-14T10:06:02;5.72;;;2.87;;
11396;SDS011;5754;43.726;7.416;2022-09-14T10:08:42;6.03;;;2.58;;
11396;SDS011;5754;43.726;7.416;2022-09-14T10:11:33;5.32;;;2.70;;
11396;SDS011;5754;43.726;7.416;2022-09-14T10:15:13;5.70;;;3.08;;
11396;SDS011;5754;43.726;7.416;2022-09-14T10:24:05;2.62;;;2.25;;
11396;SDS011;5754;43.726;7.416;2022-09-14T10:26:40;3.97;;;2.67;;
11396;SDS011;5754;43.726;7.416;2022-09-14T10:33:43;5.53;;;2.78;;
11396;SDS011;5754;43.726;7.416;2022-09-14T10:36:27;3.62;;;2.70;;
11396;SDS011;5754;43.726;7.416;2022-09-14T10:39:07;7.43;;;3.30;;
11396;SDS011;5754;43.726;7.416;2022-09-14T10:42:00;6.07;;;2.70;;
11396;SDS011;5754;43.726;7.416;2022-09-14T10:44:44;6.05;;;2.87;;
11396;SDS011;5754;43.726;7.416;2022-09-14T10:52:01;9.13;;;2.72;;
11396;SDS011;5754;43.726;7.416;2022-09-14T10:59:19;4.35;;;2.62;;
11396;SDS011;5754;43.726;7.416;2022-09-14T11:07:17;5.37;;;2.92;;
11396;SDS011;5754;43.726;7.416;2022-09-14T11:09:59;3.20;;;2.60;;
11396;SDS011;5754;43.726;7.416;2022-09-14T11:12:41;7.05;;;2.90;;
11396;SDS011;5754;43.726;7.416;2022-09-14T11:15:40;7.65;;;3.15;;
11396;SDS011;5754;43.726;7.416;2022-09-14T11:18:29;5.28;;;3.10;;
11396;SDS011;5754;43.726;7.416;2022-09-14T11:21:49;6.65;;;2.85;;
11396;SDS011;5754;43.726;7.416;2022-09-14T11:24:32;4.80;;;2.55;;
11396;SDS011;5754;43.726;7.416;2022-09-14T11:27:10;5.60;;;2.75;;
11396;SDS011;5754;43.726;7.416;2022-09-14T11:29:53;4.12;;;2.42;;
11396;SDS011;5754;43.726;7.416;2022-09-14T11:32:47;3.92;;;2.47;;
11396;SDS011;5754;43.726;7.416;2022-09-14T11:35:25;6.70;;;2.60;;
11396;SDS011;5754;43.726;7.416;2022-09-14T11:38:02;4.68;;;2.85;;
11396;SDS011;5754;43.726;7.416;2022-09-14T11:40:50;4.12;;;2.53;;
11396;SDS011;5754;43.726;7.416;2022-09-14T11:43:51;3.58;;;2.20;;
11396;SDS011;5754;43.726;7.416;2022-09-14T11:46:29;7.45;;;2.60;;
11396;SDS011;5754;43.726;7.416;2022-09-14T11:49:23;2.60;;;2.08;;
11396;SDS011;5754;43.726;7.416;2022-09-14T11:52:02;5.68;;;3.03;;
11396;SDS011;5754;43.726;7.416;2022-09-14T11:54:39;6.25;;;2.42;;
11396;SDS011;5754;43.726;7.416;2022-09-14T11:57:17;5.53;;;2.80;;
11396;SDS011;5754;43.726;7.416;2022-09-14T11:59:54;5.82;;;2.97;;
11396;SDS011;5754;43.726;7.416;2022-09-14T12:09:36;5.22;;;2.45;;
11396;SDS011;5754;43.726;7.416;2022-09-14T12:12:27;5.25;;;2.80;;
11396;SDS011;5754;43.726;7.416;2022-09-14T12:15:02;7.53;;;2.92;;
11396;SDS011;5754;43.726;7.416;2022-09-14T12:17:37;4.45;;;2.58;;
11396;SDS011;5754;43.726;7.416;2022-09-14T12:25:25;4.57;;;2.58;;
11396;SDS011;5754;43.726;7.416;2022-09-14T12:28:00;4.00;;;2.78;;
11396;SDS011;5754;43.726;7.416;2022-09-14T12:34:41;12.60;;;3.40;;
11396;SDS011;5754;43.726;7.416;2022-09-14T12:37:31;5.65;;;3.58;;
11396;SDS011;5754;43.726;7.416;2022-09-14T12:40:21;3.20;;;2.58;;
11396;SDS011;5754;43.726;7.416;2022-09-14T12:43:03;5.12;;;2.78;;
11396;SDS011;5754;43.726;7.416;2022-09-14T12:46:31;5.12;;;3.20;;
11396;SDS011;5754;43.726;7.416;2022-09-14T12:49:14;8.10;;;3.30;;
11396;SDS011;5754;43.726;7.416;2022-09-14T12:51:56;4.18;;;2.80;;
11396;SDS011;5754;43.726;7.416;2022-09-14T12:54:56;7.18;;;4.95;;
11396;SDS011;5754;43.726;7.416;2022-09-14T12:57:42;7.40;;;4.70;;
11396;SDS011;5754;43.726;7.416;2022-09-14T13:00:19;6.78;;;3.67;;
11396;SDS011;5754;43.726;7.416;2022-09-14T13:05:48;9.50;;;4.37;;
11396;SDS011;5754;43.726;7.416;2022-09-14T13:08:24;8.70;;;3.97;;
11396;SDS011;5754;43.726;7.416;2022-09-14T13:10:59;9.02;;;3.70;;
11396;SDS011;5754;43.726;7.416;2022-09-14T13:13:33;12.25;;;4.45;;
11396;SDS011;5754;43.726;7.416;2022-09-14T13:16:12;8.43;;;4.20;;
11396;SDS011;5754;43.726;7.416;2022-09-14T13:18:57;7.25;;;4.22;;
11396;SDS011;5754;43.726;7.416;2022-09-14T13:21:32;8.10;;;4.10;;
11396;SDS011;5754;43.726;7.416;2022-09-14T13:24:17;9.00;;;3.50;;
11396;SDS011;5754;43.726;7.416;2022-09-14T13:26:53;8.85;;;3.60;;
11396;SDS011;5754;43.726;7.416;2022-09-14T13:29:30;6.75;;;3.00;;
11396;SDS011;5754;43.726;7.416;2022-09-14T13:32:04;5.32;;;2.87;;
11396;SDS011;5754;43.726;7.416;2022-09-14T13:34:40;5.00;;;2.83;;
11396;SDS011;5754;43.726;7.416;2022-09-14T13:37:14;5.20;;;2.87;;
11396;SDS011;5754;43.726;7.416;2022-09-14T13:39:50;8.10;;;3.58;;
11396;SDS011;5754;43.726;7.416;2022-09-14T13:42:25;7.30;;;3.15;;
11396;SDS011;5754;43.726;7.416;2022-09-14T13:45:00;7.75;;;3.33;;
11396;SDS011;5754;43.726;7.416;2022-09-14T13:47:36;5.07;;;3.20;;
11396;SDS011;5754;43.726;7.416;2022-09-14T13:50:12;4.15;;;3.40;;
11396;SDS011;5754;43.726;7.416;2022-09-14T13:52:46;5.28;;;3.40;;
11396;SDS011;5754;43.726;7.416;2022-09-14T13:58:21;6.68;;;3.60;;
11396;SDS011;5754;43.726;7.416;2022-09-14T14:00:59;8.27;;;3.65;;
11396;SDS011;5754;43.726;7.416;2022-09-14T14:09:15;11.32;;;4.20;;
11396;SDS011;5754;43.726;7.416;2022-09-14T14:11:52;7.82;;;3.67;;
11396;SDS011;5754;43.726;7.416;2022-09-14T14:14:30;10.43;;;3.75;;
11396;SDS011;5754;43.726;7.416;2022-09-14T14:19:58;9.52;;;3.90;;
11396;SDS011;5754;43.726;7.416;2022-09-14T14:22:33;12.35;;;4.65;;
11396;SDS011;5754;43.726;7.416;2022-09-14T14:25:17;9.98;;;3.97;;
11396;SDS011;5754;43.726;7.416;2022-09-14T14:27:56;8.15;;;3.70;;
11396;SDS011;5754;43.726;7.416;2022-09-14T14:30:35;11.68;;;3.78;;
11396;SDS011;5754;43.726;7.416;2022-09-14T14:33:13;13.88;;;5.05;;
11396;SDS011;5754;43.726;7.416;2022-09-14T14:35:52;12.90;;;4.37;;
11396;SDS011;5754;43.726;7.416;2022-09-14T14:38:27;10.02;;;4.05;;
11396;SDS011;5754;43.726;7.416;2022-09-14T14:41:01;12.02;;;4.32;;
11396;SDS011;5754;43.726;7.416;2022-09-14T14:43:36;10.88;;;3.95;;
11396;SDS011;5754;43.726;7.416;2022-09-14T14:46:12;8.55;;;3.50;;
11396;SDS011;5754;43.726;7.416;2022-09-14T14:48:46;13.52;;;4.37;;
11396;SDS011;5754;43.726;7.416;2022-09-14T14:51:21;11.07;;;4.22;;
11396;SDS011;5754;43.726;7.416;2022-09-14T14:53:55;13.20;;;4.05;;
11396;SDS011;5754;43.726;7.416;2022-09-14T14:56:30;9.55;;;3.75;;
11396;SDS011;5754;43.726;7.416;2022-09-14T14:59:15;11.15;;;3.72;;
11396;SDS011;5754;43.726;7.416;2022-09-14T15:01:50;10.90;;;4.15;;
11396;SDS011;5754;43.726;7.416;2022-09-14T15:04:26;9.80;;;4.07;;
11396;SDS011;5754;43.726;7.416;2022-09-14T15:07:01;11.27;;;4.15;;
11396;SDS011;5754;43.726;7.416;2022-09-14T15:09:36;11.77;;;4.25;;
11396;SDS011;5754;43.726;7.416;2022-09-14T15:12:10;16.83;;;4.95;;
11396;SDS011;5754;43.726;7.416;2022-09-14T15:14:46;12.15;;;3.95;;
11396;SDS011;5754;43.726;7.416;2022-09-14T15:17:20;14.35;;;4.30;;
11396;SDS011;5754;43.726;7.416;2022-09-14T15:19:55;12.73;;;4.18;;
11396;SDS011;5754;43.726;7.416;2022-09-14T15:22:29;11.45;;;4.65;;
11396;SDS011;5754;43.726;7.416;2022-09-14T15:25:04;11.23;;;4.40;;
11396;SDS011;5754;43.726;7.416;2022-09-14T15:27:39;11.05;;;4.55;;
11396;SDS011;5754;43.726;7.416;2022-09-14T15:30:14;11.85;;;5.03;;
11396;SDS011;5754;43.726;7.416;2022-09-14T15:32:49;17.20;;;4.65;;
11396;SDS011;5754;43.726;7.416;2022-09-14T15:35:23;13.73;;;5.03;;
11396;SDS011;5754;43.726;7.416;2022-09-14T15:37:58;17.15;;;4.65;;
11396;SDS011;5754;43.726;7.416;2022-09-14T15:40:33;12.27;;;4.95;;
11396;SDS011;5754;43.726;7.416;2022-09-14T15:43:07;15.60;;;4.87;;
11396;SDS011;5754;43.726;7.416;2022-09-14T15:45:42;9.60;;;4.53;;
11396;SDS011;5754;43.726;7.416;2022-09-14T15:48:16;16.65;;;4.75;;
11396;SDS011;5754;43.726;7.416;2022-09-14T15:50:51;16.62;;;5.82;;
11396;SDS011;5754;43.726;7.416;2022-09-14T15:53:26;13.40;;;4.95;;
11396;SDS011;5754;43.726;7.416;2022-09-14T15:56:01;18.45;;;5.00;;
11396;SDS011;5754;43.726;7.416;2022-09-14T15:58:35;16.80;;;5.43;;
11396;SDS011;5754;43.726;7.416;2022-09-14T16:01:10;14.38;;;5.22;;
11396;SDS011;5754;43.726;7.416;2022-09-14T16:03:45;14.70;;;4.95;;
11396;SDS011;5754;43.726;7.416;2022-09-14T16:06:20;14.77;;;5.15;;
11396;SDS011;5754;43.726;7.416;2022-09-14T16:08:55;16.98;;;4.57;;
11396;SDS011;5754;43.726;7.416;2022-09-14T16:11:31;17.20;;;5.75;;
11396;SDS011;5754;43.726;7.416;2022-09-14T16:14:08;17.37;;;5.93;;
11396;SDS011;5754;43.726;7.416;2022-09-14T16:16:43;18.30;;;5.85;;
11396;SDS011;5754;43.726;7.416;2022-09-14T16:19:18;19.35;;;5.68;;
11396;SDS011;5754;43.726;7.416;2022-09-14T16:21:52;17.48;;;5.70;;
11396;SDS011;5754;43.726;7.416;2022-09-14T16:24:27;24.52;;;5.95;;
11396;SDS011;5754;43.726;7.416;2022-09-14T16:27:01;20.83;;;6.35;;
11396;SDS011;5754;43.726;7.416;2022-09-14T16:29:36;18.12;;;5.90;;
11396;SDS011;5754;43.726;7.416;2022-09-14T16:32:12;21.87;;;6.05;;
11396;SDS011;5754;43.726;7.416;2022-09-14T16:34:47;15.93;;;6.80;;
11396;SDS011;5754;43.726;7.416;2022-09-14T16:37:21;24.98;;;8.70;;
11396;SDS011;5754;43.726;7.416;2022-09-14T16:39:56;23.02;;;5.87;;
11396;SDS011;5754;43.726;7.416;2022-09-14T16:42:31;24.50;;;6.12;;
11396;SDS011;5754;43.726;7.416;2022-09-14T16:45:06;24.30;;;5.50;;
11396;SDS011;5754;43.726;7.416;2022-09-14T16:47:40;19.98;;;6.03;;
11396;SDS011;5754;43.726;7.416;2022-09-14T16:50:15;18.50;;;6.05;;
11396;SDS011;5754;43.726;7.416;2022-09-14T16:52:49;25.77;;;6.43;;
11396;SDS011;5754;43.726;7.416;2022-09-14T16:55:23;19.27;;;5.53;;
11396;SDS011;5754;43.726;7.416;2022-09-14T16:57:58;20.65;;;6.00;;
11396;SDS011;5754;43.726;7.416;2022-09-14T17:00:33;19.20;;;4.90;;
11396;SDS011;5754;43.726;7.416;2022-09-14T17:03:08;19.30;;;5.43;;
11396;SDS011;5754;43.726;7.416;2022-09-14T17:05:42;19.37;;;5.55;;
11396;SDS011;5754;43.726;7.416;2022-09-14T17:08:17;16.12;;;5.60;;
11396;SDS011;5754;43.726;7.416;2022-09-14T17:10:51;12.70;;;4.60;;
11396;SDS011;5754;43.726;7.416;2022-09-14T17:13:26;17.23;;;5.32;;
11396;SDS011;5754;43.726;7.416;2022-09-14T17:16:08;13.75;;;4.87;;
11396;SDS011;5754;43.726;7.416;2022-09-14T17:18:43;15.13;;;4.60;;
11396;SDS011;5754;43.726;7.416;2022-09-14T17:21:32;10.68;;;3.65;;
11396;SDS011;5754;43.726;7.416;2022-09-14T17:24:07;13.95;;;4.50;;
11396;SDS011;5754;43.726;7.416;2022-09-14T17:26:42;16.02;;;5.00;;